• Join FlightAware (Why Join?)
  • Login
  • US Flag 
10:26AM EDT


 

Airport Tracker/Info


-or-


 

Live Flight TrackerFlight Track Log ✈ AWE3434 ✈ 15-Jul-2013 ✈ KPHL - KCMH

Flight Track Log - Related Links

Times and Time Zones

All times are in EDT time to prevent confusion due to time zone crossing. See the AWE3434 flight status page for this flight to view local times or setup timezone preferences in your user account.

Time Position Orientation Groundspeed Altitude Reporting Facility
EDT Latitude Longitude Course Direction KTS MPH feet Rate Location/Type
02:11PM 39.8667 -75.2833 270° West 147 169 900  Level Philadelphia TRACON
02:12PM 39.8500 -75.3000 218° Southwest 152 175 1,700 1,860 Climbing Philadelphia TRACON
02:13PM 39.9016 -75.6065 288° West  Level FlightAware Approximate
02:14PM 39.9060 -75.7307 258° West  Level FlightAware Approximate
02:14PM 39.8394 -75.4508 265° West 216 249 5,600  Level New York Center
02:15PM 39.9001 -75.8587 270° West  Level FlightAware Approximate
02:15PM 39.8478 -75.5539 276° West 258 297 8,200  Level New York Center
02:16PM 39.9000 -75.9875 270° West  Level FlightAware Approximate
02:16PM 39.8544 -75.6411 276° West 278 320 10,400  Level New York Center
02:17PM 39.9000 -76.1164 270° West  Level FlightAware Approximate
02:17PM 39.8661 -75.7608 277° West 302 348 12,000  Level New York Center
02:18PM 39.8767 -75.8564 278° West 319 367 12,800 1,560 Climbing New York Center
02:19PM 39.8911 -76.0008 277° West 336 387 15,200 1,980 Climbing New York Center
02:20PM 39.9022 -76.1261 277° West 343 395 16,900 1,440 Climbing New York Center
02:21PM 39.9092 -76.2511 274° West 356 410 18,200 1,320 Climbing New York Center
02:22PM 39.9156 -76.3761 274° West 366 421 19,500 1,320 Climbing New York Center
02:23PM 39.9194 -76.5144 272° West 374 430 20,800 1,380 Climbing New York Center
02:24PM 39.9272 -76.6533 274° West 384 442 22,300 1,320 Climbing New York Center
02:25PM 39.9306 -76.7917 272° West 390 449 23,500 1,080 Climbing New York Center
02:26PM 39.9358 -76.9356 273° West 395 455 24,600 1,140 Climbing New York Center
02:27PM 39.9422 -77.0881 273° West 409 471 25,800 1,140 Climbing New York Center
02:28PM 39.9486 -77.2403 273° West 416 479 26,900 1,020 Climbing New York Center
02:29PM 39.9547 -77.3925 273° West 426 490 27,900 1,140 Climbing New York Center
02:30PM 39.9644 -77.6439 273° West 421 484 29,700 840 Climbing Cleveland Center
02:31PM 39.9686 -77.8011 272° West 433 498 30,000 120 Climbing Cleveland Center
02:32PM 39.9742 -77.9553 273° West 438 504 30,000  Level Cleveland Center
02:33PM 39.9778 -78.1150 272° West 438 504 30,000  Level Cleveland Center
02:34PM 39.9811 -78.2719 272° West 438 504 30,000  Level Cleveland Center
02:35PM 39.9819 -78.4156 270° West 438 504 30,000  Level Cleveland Center
02:36PM 39.9869 -78.5725 272° West 438 504 30,000  Level Cleveland Center
02:37PM 39.9917 -78.7322 272° West 438 504 30,000  Level Cleveland Center
02:38PM 39.9942 -78.8894 271° West 438 504 30,000  Level Cleveland Center
02:39PM 39.9986 -79.0656 272° West 438 504 30,000  Level Cleveland Center
02:40PM 40.0028 -79.2225 272° West 438 504 30,000  Level Cleveland Center
02:41PM 40.0044 -79.3633 271° West 443 510 30,000  Level Cleveland Center
02:42PM 40.0081 -79.5261 272° West 438 504 30,000  Level Cleveland Center
02:43PM 40.0094 -79.6886 271° West 443 510 30,000  Level Cleveland Center
02:44PM 40.0106 -79.8539 271° West 448 516 30,000  Level Cleveland Center
02:45PM 40.0136 -80.0167 271° West 454 522 30,000  Level Cleveland Center
02:46PM 40.0144 -80.1847 270° West 459 528 30,000 -120 Level Cleveland Center
02:47PM 40.0169 -80.3472 271° West 459 528 29,800 -720 Descending Cleveland Center
02:48PM 40.0172 -80.5125 270° West 459 528 28,600 -1,200 Descending Cleveland Center
02:49PM 40.0192 -80.6672 271° West 448 516 27,500 -1,200 Descending Cleveland Center
02:50PM 40.0169 -80.8189 269° West 436 502 26,300 -1,380 Descending Cleveland Center
02:52PM 39.9761 -81.0292 256° West 418 481 24,200 -1,620 Descending Indianapolis Center
02:53PM 39.9478 -81.1725 256° West 406 467 22,400 -1,800 Descending Indianapolis Center
02:54PM 39.9214 -81.3122 256° West 400 460 20,600 -1,920 Descending Indianapolis Center
02:55PM 39.8908 -81.4669 256° West 377 434 18,500 -1,620 Descending Indianapolis Center
02:56PM 39.8642 -81.5956 255° West 365 420 17,300 -1,560 Descending Indianapolis Center
02:57PM 39.8394 -81.7206 256° West 356 410 15,300 -1,740 Descending Indianapolis Center
02:58PM 39.8156 -81.8397 255° West 343 395 13,800 -1,500 Descending Indianapolis Center
02:59PM 39.7917 -81.9572 255° West 335 386 12,300 -1,500 Descending Indianapolis Center
03:00PM 39.7692 -82.0697 255° West 323 372 10,800 -1,320 Descending Indianapolis Center
03:01PM 39.7744 -82.1633 274° West 316 364 10,000 -420 Descending Indianapolis Center
03:02PM 39.7958 -82.2756 284° West 318 366 10,100  Climbing Indianapolis Center
03:03PM 39.8250 -82.4253 284° West 317 365 10,000  Descending Indianapolis Center
03:04PM 39.8403 -82.5056 284° West 317 365 10,100 -60 Climbing Indianapolis Center
03:05PM 39.8631 -82.6233 284° West 313 360 9,900 -1,080 Descending Indianapolis Center
03:06PM 39.8797 -82.7133 284° West 282 325 8,000 -1,980 Descending Indianapolis Center
03:07PM 39.8978 -82.8142 283° West 279 321 6,100 -1,140 Descending Indianapolis Center
03:08PM 39.9158 -82.9125 283° West 279 321 5,800 -1,080 Descending Indianapolis Center
03:09PM 39.9222 -83.0200 274° West 278 320 4,000 -1,800 Descending Indianapolis Center